createdAt,value
2022-12-18T00:00:00.202Z,14.33
2022-12-18T00:02:32.143Z,15.97
2022-12-18T00:05:04.148Z,15.57
2022-12-18T00:07:36.787Z,19.27
2022-12-18T00:10:09.007Z,19.10
2022-12-18T00:12:40.834Z,19.37
2022-12-18T00:15:12.656Z,21.40
2022-12-18T00:17:44.392Z,23.67
2022-12-18T00:20:16.125Z,20.00
2022-12-18T00:22:47.821Z,16.60
2022-12-18T00:25:19.704Z,16.87
2022-12-18T00:27:51.448Z,16.60
2022-12-18T00:30:23.300Z,15.47
2022-12-18T00:32:55.076Z,22.77
2022-12-18T00:35:26.754Z,18.10
2022-12-18T00:37:58.488Z,25.67
2022-12-18T00:40:30.147Z,28.07
2022-12-18T00:43:01.854Z,28.60
2022-12-18T00:45:33.656Z,29.40
2022-12-18T00:48:05.653Z,28.40
2022-12-18T00:50:37.398Z,27.90
2022-12-18T00:53:09.098Z,38.05
2022-12-18T00:55:42.135Z,33.20
2022-12-18T00:58:18.276Z,22.83
2022-12-18T01:00:50.946Z,20.03
2022-12-18T01:03:22.652Z,23.77
2022-12-18T01:05:54.450Z,20.50
2022-12-18T01:08:26.235Z,21.23
2022-12-18T01:10:58.061Z,20.37
2022-12-18T01:13:29.771Z,19.27
2022-12-18T01:16:01.738Z,18.53
2022-12-18T01:18:33.657Z,18.40
2022-12-18T01:21:10.308Z,17.90
2022-12-18T01:23:42.739Z,26.97
2022-12-18T01:26:17.191Z,30.77
2022-12-18T01:28:49.064Z,31.70
2022-12-18T01:31:27.071Z,24.57
2022-12-18T01:34:02.192Z,18.07
2022-12-18T01:36:36.848Z,18.20
2022-12-18T01:39:13.027Z,19.47
2022-12-18T01:42:03.717Z,16.20
2022-12-18T01:45:04.194Z,19.50
2022-12-18T01:47:51.034Z,14.43
2022-12-18T01:50:37.793Z,16.43
2022-12-18T01:53:15.794Z,16.87
2022-12-18T01:55:52.640Z,20.03
2022-12-18T01:58:49.251Z,15.67
2022-12-18T02:01:23.757Z,16.03
2022-12-18T02:03:55.611Z,18.17
2022-12-18T02:06:38.617Z,20.10
2022-12-18T02:09:18.751Z,16.03
2022-12-18T02:11:53.674Z,16.00
2022-12-18T02:14:45.476Z,17.57
2022-12-18T02:17:19.688Z,15.27
2022-12-18T02:20:15.465Z,17.03
2022-12-18T02:23:02.035Z,14.47
2022-12-18T02:26:11.535Z,21.07
2022-12-18T02:29:01.656Z,15.97
2022-12-18T02:31:39.991Z,15.23
2022-12-18T02:34:13.428Z,17.70
2022-12-18T02:36:47.073Z,18.33
2022-12-18T02:39:22.117Z,17.10
2022-12-18T02:41:54.017Z,25.58
2022-12-18T02:44:25.877Z,22.13
2022-12-18T02:46:57.617Z,20.00
2022-12-18T02:49:37.900Z,20.77
2022-12-18T02:52:28.202Z,17.93
2022-12-18T02:55:12.371Z,17.57
2022-12-18T02:57:47.605Z,17.57
2022-12-18T03:00:34.264Z,18.53
2022-12-18T03:03:21.380Z,18.40
2022-12-18T03:06:06.916Z,18.27
2022-12-18T03:08:42.714Z,17.47
2022-12-18T03:11:15.616Z,18.10
2022-12-18T03:13:57.063Z,17.73
2022-12-18T03:16:32.068Z,21.10
2022-12-18T03:19:09.940Z,19.40
2022-12-18T03:21:56.892Z,17.00
2022-12-18T03:24:31.760Z,17.13
2022-12-18T03:27:06.281Z,18.17
2022-12-18T03:29:46.999Z,19.53
2022-12-18T03:32:28.197Z,15.63
2022-12-18T03:35:05.282Z,23.48
2022-12-18T03:37:37.396Z,20.97
2022-12-18T03:40:10.184Z,19.17
2022-12-18T03:42:53.881Z,15.70
2022-12-18T03:45:35.505Z,14.70
2022-12-18T03:48:12.792Z,16.90
2022-12-18T03:51:06.101Z,17.10
2022-12-18T03:53:50.149Z,16.13
2022-12-18T03:56:24.780Z,14.10
2022-12-18T03:58:58.661Z,16.13
2022-12-18T04:01:35.114Z,16.27
2022-12-18T04:04:09.348Z,17.70
2022-12-18T04:06:42.849Z,15.97
2022-12-18T04:09:15.350Z,15.37
2022-12-18T04:11:48.237Z,17.33
2022-12-18T04:14:20.021Z,17.80
2022-12-18T04:16:51.756Z,15.80
2022-12-18T04:19:23.412Z,15.43
2022-12-18T04:21:55.361Z,14.37
2022-12-18T04:24:27.312Z,16.63
2022-12-18T04:26:59.041Z,15.37
2022-12-18T04:29:30.915Z,20.77
2022-12-18T04:32:02.641Z,15.60
2022-12-18T04:34:34.681Z,15.50
2022-12-18T04:37:06.353Z,15.20
2022-12-18T04:39:38.124Z,15.87
2022-12-18T04:42:09.853Z,15.07
2022-12-18T04:44:41.528Z,14.63
2022-12-18T04:47:13.256Z,12.70
2022-12-18T04:49:45.062Z,15.60
2022-12-18T04:52:16.894Z,16.20
2022-12-18T04:54:48.598Z,14.30
2022-12-18T04:57:20.511Z,15.80
2022-12-18T04:59:52.180Z,15.10
2022-12-18T05:02:23.929Z,16.50
2022-12-18T05:04:55.622Z,16.00
2022-12-18T05:07:27.414Z,13.27
2022-12-18T05:09:59.052Z,13.50
2022-12-18T05:12:32.323Z,16.67
2022-12-18T05:15:04.405Z,13.53
2022-12-18T05:17:36.176Z,16.93
2022-12-18T05:20:08.220Z,14.50
2022-12-18T05:22:39.909Z,15.82
2022-12-18T05:25:11.801Z,15.40
2022-12-18T05:27:43.607Z,13.93
2022-12-18T05:30:16.264Z,15.73
2022-12-18T05:32:47.940Z,13.53
2022-12-18T05:35:19.714Z,12.97
2022-12-18T05:37:51.492Z,12.83
2022-12-18T05:40:23.207Z,13.17
2022-12-18T05:42:54.941Z,13.50
2022-12-18T05:45:26.641Z,12.20
2022-12-18T05:47:58.446Z,14.70
2022-12-18T05:50:30.180Z,15.37
2022-12-18T05:53:01.975Z,15.13
2022-12-18T05:55:38.119Z,15.63
2022-12-18T05:58:11.369Z,14.07
2022-12-18T06:00:45.970Z,13.77
2022-12-18T06:03:17.720Z,12.97
2022-12-18T06:05:49.678Z,13.37
2022-12-18T06:08:21.401Z,11.87
2022-12-18T06:10:53.726Z,13.37
2022-12-18T06:13:25.378Z,13.20
2022-12-18T06:15:57.117Z,12.20
2022-12-18T06:18:28.849Z,13.40
2022-12-18T06:21:01.073Z,10.87
2022-12-18T06:23:32.896Z,14.90
2022-12-18T06:26:06.538Z,14.47
2022-12-18T06:28:38.697Z,13.90
2022-12-18T06:31:10.714Z,11.10
2022-12-18T06:33:42.697Z,13.80
2022-12-18T06:36:15.431Z,14.73
2022-12-18T06:38:47.356Z,13.20
2022-12-18T06:41:22.161Z,14.30
2022-12-18T06:43:59.401Z,11.60
2022-12-18T06:46:31.470Z,13.87
2022-12-18T06:49:03.218Z,12.97
2022-12-18T06:51:34.888Z,17.67
2022-12-18T06:54:06.686Z,16.53
2022-12-18T06:56:38.445Z,15.30
2022-12-18T06:59:10.134Z,16.50
2022-12-18T07:01:42.075Z,12.60
2022-12-18T07:04:13.990Z,12.50
2022-12-18T07:06:45.731Z,13.77
2022-12-18T07:09:17.373Z,12.07
2022-12-18T07:11:49.033Z,14.32
2022-12-18T07:14:20.866Z,15.00
2022-12-18T07:16:52.788Z,14.30
2022-12-18T07:19:24.602Z,11.63
2022-12-18T07:21:56.300Z,15.50
2022-12-18T07:24:28.032Z,15.90
2022-12-18T07:26:59.769Z,12.97
2022-12-18T07:29:31.867Z,12.00
2022-12-18T07:32:03.658Z,14.43
2022-12-18T07:34:35.759Z,9.67
2022-12-18T07:37:08.330Z,12.57
2022-12-18T07:39:40.004Z,12.67
2022-12-18T07:42:30.237Z,14.20
2022-12-18T07:45:03.065Z,12.77
2022-12-18T07:47:37.722Z,11.70
2022-12-18T07:50:09.860Z,11.40
2022-12-18T07:52:41.542Z,14.77
2022-12-18T07:55:13.259Z,12.00
2022-12-18T07:57:55.397Z,11.70
2022-12-18T08:00:29.767Z,12.70
2022-12-18T08:03:01.819Z,12.57
2022-12-18T08:05:33.665Z,11.32
2022-12-18T08:08:05.488Z,12.77
2022-12-18T08:10:38.287Z,14.33
2022-12-18T08:13:10.044Z,11.90
2022-12-18T08:15:41.733Z,13.00
2022-12-18T08:18:14.499Z,12.63
2022-12-18T08:20:46.361Z,12.77
2022-12-18T08:23:18.227Z,15.60
2022-12-18T08:25:50.892Z,12.43
2022-12-18T08:28:22.651Z,11.93
2022-12-18T08:30:54.319Z,12.70
2022-12-18T08:33:27.304Z,15.37
2022-12-18T08:36:02.760Z,16.17
2022-12-18T08:38:34.830Z,13.97
2022-12-18T08:41:09.725Z,19.48
2022-12-18T08:44:00.401Z,25.27
2022-12-18T08:46:38.159Z,28.57
2022-12-18T08:49:11.174Z,33.00
2022-12-18T08:51:43.210Z,39.37
2022-12-18T08:54:15.105Z,35.70
2022-12-18T08:56:46.849Z,32.10
2022-12-18T08:59:20.208Z,34.07
2022-12-18T09:01:56.322Z,47.85
2022-12-18T09:04:28.101Z,38.77
2022-12-18T09:06:59.804Z,37.37
2022-12-18T09:09:31.578Z,32.83
2022-12-18T09:12:03.394Z,31.80
2022-12-18T09:14:35.238Z,29.00
2022-12-18T09:17:07.075Z,34.40
2022-12-18T09:19:38.867Z,32.00
2022-12-18T09:22:11.172Z,34.03
2022-12-18T09:24:42.871Z,31.10
2022-12-18T09:27:14.541Z,27.83
2022-12-18T09:29:46.210Z,28.37
2022-12-18T09:32:22.363Z,28.03
2022-12-18T09:34:54.387Z,33.13
2022-12-18T09:37:26.132Z,33.00
2022-12-18T09:39:57.895Z,32.57
2022-12-18T09:42:29.860Z,34.23
2022-12-18T09:45:02.129Z,34.53
2022-12-18T09:47:38.681Z,34.90
2022-12-18T09:50:30.556Z,31.17
2022-12-18T09:53:10.814Z,31.20
2022-12-18T09:55:47.510Z,30.57
2022-12-18T09:58:37.169Z,30.40
2022-12-18T10:01:15.453Z,31.83
2022-12-18T10:03:47.854Z,29.00
2022-12-18T10:06:22.369Z,31.70
2022-12-18T10:09:31.637Z,32.43
2022-12-18T10:12:13.843Z,32.53
2022-12-18T10:15:23.655Z,30.57
2022-12-18T10:18:34.520Z,29.87
2022-12-18T10:21:14.362Z,29.27
2022-12-18T10:24:36.953Z,30.37
2022-12-18T10:27:26.843Z,25.03
2022-12-18T10:30:00.011Z,25.70
2022-12-18T10:32:32.106Z,26.17
2022-12-18T10:35:03.933Z,26.27
2022-12-18T10:37:36.009Z,27.33
2022-12-18T10:40:21.501Z,30.50
2022-12-18T10:43:11.585Z,25.13
2022-12-18T10:45:58.272Z,24.77
2022-12-18T10:48:31.596Z,21.07
2022-12-18T10:51:12.135Z,26.20
2022-12-18T10:53:54.659Z,24.50
2022-12-18T10:56:29.718Z,28.33
2022-12-18T10:59:07.593Z,32.25
2022-12-18T11:01:53.278Z,35.40
2022-12-18T11:04:28.037Z,28.37
2022-12-18T11:07:09.064Z,27.40
2022-12-18T11:09:41.419Z,22.20
2022-12-18T11:12:20.177Z,26.57
2022-12-18T11:14:58.989Z,28.50
2022-12-18T11:17:32.164Z,30.67
2022-12-18T11:20:08.049Z,27.23
2022-12-18T11:22:41.165Z,23.60
2022-12-18T11:28:24.557Z,21.53
2022-12-18T11:31:18.031Z,18.97
2022-12-18T11:36:55.930Z,22.60
2022-12-18T11:39:41.536Z,24.30
2022-12-18T11:42:28.838Z,19.97
2022-12-18T11:45:21.375Z,21.97
2022-12-18T11:48:16.093Z,20.00
2022-12-18T11:50:52.111Z,20.57
2022-12-18T11:53:26.455Z,19.67
2022-12-18T11:56:26.899Z,19.00
2022-12-18T11:59:01.370Z,19.20
2022-12-18T12:01:45.813Z,19.27
2022-12-18T12:04:44.397Z,20.13
2022-12-18T12:07:19.169Z,20.90
2022-12-18T12:09:57.758Z,20.47
2022-12-18T12:12:48.721Z,23.30
2022-12-18T12:15:36.879Z,24.15
2022-12-18T12:18:44.538Z,25.10
2022-12-18T12:21:41.822Z,21.30
2022-12-18T12:24:45.810Z,20.43
2022-12-18T12:27:50.894Z,20.43
2022-12-18T12:30:29.228Z,22.00
2022-12-18T12:33:21.757Z,24.70
2022-12-18T12:35:59.625Z,23.70
2022-12-18T12:38:49.859Z,21.80
2022-12-18T12:41:47.316Z,23.03
2022-12-18T12:44:31.986Z,22.77
2022-12-18T12:47:19.427Z,22.03
2022-12-18T12:49:51.971Z,21.00
2022-12-18T12:52:35.946Z,23.30
2022-12-18T12:55:19.942Z,19.40
2022-12-18T12:58:00.154Z,23.27
2022-12-18T13:00:42.380Z,21.73
2022-12-18T13:03:39.817Z,21.43
2022-12-18T13:06:34.072Z,21.60
2022-12-18T13:09:06.293Z,24.73
2022-12-18T13:12:07.810Z,21.87
2022-12-18T13:14:41.836Z,23.50
2022-12-18T13:17:30.238Z,21.30
2022-12-18T13:20:15.582Z,23.50
2022-12-18T13:22:50.181Z,23.10
2022-12-18T13:25:56.824Z,22.73
2022-12-18T13:28:47.064Z,22.80
2022-12-18T13:31:30.805Z,26.83
2022-12-18T13:34:27.664Z,24.80
2022-12-18T13:37:38.334Z,23.23
2022-12-18T13:40:51.944Z,23.70
2022-12-18T13:43:28.636Z,22.80
2022-12-18T13:46:48.262Z,22.63
2022-12-18T13:49:38.490Z,24.37
2022-12-18T13:52:34.492Z,22.60
2022-12-18T13:55:17.275Z,24.90
2022-12-18T13:57:49.081Z,25.93
2022-12-18T14:00:29.387Z,25.80
2022-12-18T14:03:01.217Z,26.53
2022-12-18T14:05:36.936Z,27.17
2022-12-18T14:08:13.588Z,26.13
2022-12-18T14:10:50.836Z,27.37
2022-12-18T14:13:30.192Z,24.63
2022-12-18T14:16:04.372Z,25.23
2022-12-18T14:19:10.095Z,26.63
2022-12-18T14:21:49.185Z,28.00
2022-12-18T14:24:22.462Z,27.77
2022-12-18T14:26:54.527Z,25.30
2022-12-18T14:29:29.544Z,24.95
2022-12-18T14:32:19.331Z,26.43
2022-12-18T14:34:57.301Z,25.93
2022-12-18T14:37:29.150Z,29.27
2022-12-18T14:40:10.825Z,29.73
2022-12-18T14:42:43.446Z,29.23
2022-12-18T14:45:42.560Z,27.30
2022-12-18T14:48:25.134Z,27.00
2022-12-18T14:51:22.091Z,24.70
2022-12-18T14:53:57.675Z,28.50
2022-12-18T14:56:33.535Z,28.87
2022-12-18T14:59:06.938Z,31.20
2022-12-18T15:01:46.770Z,29.27
2022-12-18T15:04:35.590Z,31.70
2022-12-18T15:07:15.805Z,33.78
2022-12-18T15:10:03.546Z,31.13
2022-12-18T15:12:40.150Z,31.00
2022-12-18T15:15:33.760Z,39.80
2022-12-18T15:18:11.701Z,30.33
2022-12-18T15:20:56.152Z,33.33
2022-12-18T15:23:38.903Z,30.63
2022-12-18T15:26:12.797Z,32.00
2022-12-18T15:28:53.777Z,34.10
2022-12-18T15:31:35.823Z,32.50
2022-12-18T15:34:13.281Z,29.30
2022-12-18T15:36:45.630Z,33.07
2022-12-18T15:39:17.326Z,33.43
2022-12-18T15:42:07.837Z,29.20
2022-12-18T15:44:39.647Z,33.00
2022-12-18T15:47:13.483Z,29.10
2022-12-18T15:49:45.298Z,29.10
2022-12-18T15:52:27.008Z,32.90
2022-12-18T15:55:17.607Z,31.60
2022-12-18T15:57:49.326Z,29.90
2022-12-18T16:00:20.980Z,31.03
2022-12-18T16:02:52.794Z,27.97
2022-12-18T16:05:25.055Z,27.93
2022-12-18T16:07:56.857Z,29.63
2022-12-18T16:10:28.763Z,28.50
2022-12-18T16:13:00.433Z,30.08
2022-12-18T16:15:32.183Z,30.17
2022-12-18T16:18:04.104Z,28.63
2022-12-18T16:20:35.909Z,29.40
2022-12-18T16:23:07.759Z,28.17
2022-12-18T16:25:39.580Z,29.07
2022-12-18T16:28:11.354Z,29.20
2022-12-18T16:30:43.080Z,27.17
2022-12-18T16:33:14.784Z,29.57
2022-12-18T16:35:53.857Z,29.10
2022-12-18T16:38:25.637Z,28.60
2022-12-18T16:41:16.008Z,27.70
2022-12-18T16:43:53.051Z,29.30
2022-12-18T16:46:26.658Z,31.30
2022-12-18T16:48:59.903Z,30.17
2022-12-18T16:51:34.374Z,31.67
2022-12-18T16:54:10.896Z,28.87
2022-12-18T16:56:44.089Z,34.80
2022-12-18T16:59:16.182Z,37.30
2022-12-18T17:01:48.458Z,33.97
2022-12-18T17:04:20.265Z,30.77
2022-12-18T17:06:53.756Z,35.85
2022-12-18T17:09:25.774Z,33.30
2022-12-18T17:11:57.471Z,30.93
2022-12-18T17:14:29.532Z,31.90
2022-12-18T17:19:53.464Z,35.67
2022-12-18T17:22:25.198Z,38.63
2022-12-18T17:24:57.032Z,34.47
2022-12-18T17:27:28.902Z,39.50
2022-12-18T17:30:00.706Z,42.20
2022-12-18T17:32:32.369Z,41.83
2022-12-18T17:35:07.392Z,37.80
2022-12-18T17:37:39.311Z,32.63
2022-12-18T17:40:11.285Z,33.87
2022-12-18T17:42:43.021Z,34.30
2022-12-18T17:45:14.777Z,35.10
2022-12-18T17:47:46.471Z,37.50
2022-12-18T17:50:18.301Z,36.00
2022-12-18T17:52:49.987Z,37.43
2022-12-18T17:55:21.665Z,40.50
2022-12-18T17:57:53.839Z,35.67
2022-12-18T18:00:25.547Z,36.85
2022-12-18T18:02:57.437Z,33.60
2022-12-18T18:05:29.265Z,33.20
2022-12-18T18:08:01.008Z,35.40
2022-12-18T18:10:35.974Z,34.33
2022-12-18T18:13:46.896Z,34.53
2022-12-18T18:16:19.063Z,36.07
2022-12-18T18:18:50.736Z,37.90
2022-12-18T18:21:22.416Z,34.17
2022-12-18T18:23:54.651Z,29.70
2022-12-18T18:26:29.225Z,32.57
2022-12-18T18:29:03.954Z,30.97
2022-12-18T18:31:40.818Z,31.90
2022-12-18T18:34:18.943Z,33.87
2022-12-18T18:36:51.104Z,30.80
2022-12-18T18:39:22.873Z,30.20
2022-12-18T18:41:54.966Z,30.93
2022-12-18T18:44:26.706Z,30.60
2022-12-18T18:46:58.709Z,32.57
2022-12-18T18:49:31.446Z,36.43
2022-12-18T18:52:03.164Z,31.47
2022-12-18T18:54:34.967Z,35.53
2022-12-18T18:57:26.269Z,33.27
2022-12-18T18:59:58.449Z,28.37
2022-12-18T19:02:30.439Z,31.00
2022-12-18T19:05:02.226Z,31.10
2022-12-18T19:07:33.953Z,37.03
2022-12-18T19:10:06.194Z,29.97
2022-12-18T19:12:56.375Z,32.40
2022-12-18T19:15:28.071Z,31.63
2022-12-18T19:18:00.208Z,30.07
2022-12-18T19:20:32.094Z,29.27
2022-12-18T19:23:03.984Z,33.40
2022-12-18T19:25:41.746Z,32.00
2022-12-18T19:28:21.620Z,36.80
2022-12-18T19:30:56.352Z,29.30
2022-12-18T19:33:43.211Z,34.07
2022-12-18T19:36:25.057Z,31.50
2022-12-18T19:38:59.805Z,34.17
2022-12-18T19:41:33.905Z,37.10
2022-12-18T19:44:07.570Z,36.03
2022-12-18T19:46:42.309Z,41.60
2022-12-18T19:49:18.237Z,37.90
2022-12-18T19:51:50.601Z,32.97
2022-12-18T19:54:22.632Z,29.80
2022-12-18T19:56:54.353Z,30.23
2022-12-18T19:59:26.009Z,30.87
2022-12-18T20:01:57.887Z,31.57
2022-12-18T20:04:29.871Z,29.53
2022-12-18T20:07:01.644Z,33.87
2022-12-18T20:09:33.476Z,40.60
2022-12-18T20:12:05.476Z,36.17
2022-12-18T20:14:37.300Z,31.00
2022-12-18T20:17:09.683Z,30.63
2022-12-18T20:19:41.784Z,32.80
2022-12-18T20:22:13.526Z,33.40
2022-12-18T20:24:46.372Z,32.90
2022-12-18T20:27:21.961Z,34.00
2022-12-18T20:29:55.732Z,36.20
2022-12-18T20:32:35.362Z,34.20
2022-12-18T20:35:08.845Z,30.93
2022-12-18T20:37:46.116Z,33.60
2022-12-18T20:40:22.750Z,33.67
2022-12-18T20:42:54.574Z,36.90
2022-12-18T20:45:28.405Z,40.90
2022-12-18T20:48:01.638Z,32.33
2022-12-18T20:50:33.356Z,29.57
2022-12-18T20:53:05.926Z,29.93
2022-12-18T20:55:42.700Z,34.07
2022-12-18T20:58:14.382Z,29.53
2022-12-18T21:00:46.193Z,29.53
2022-12-18T21:03:18.879Z,30.90
2022-12-18T21:05:50.639Z,33.57
2022-12-18T21:08:22.365Z,32.10
2022-12-18T21:10:54.237Z,31.20
2022-12-18T21:13:27.354Z,30.53
2022-12-18T21:16:01.314Z,31.17
2022-12-18T21:18:33.135Z,29.37
2022-12-18T21:21:05.053Z,32.23
2022-12-18T21:23:36.955Z,31.37
2022-12-18T21:26:28.262Z,33.77
2022-12-18T21:29:02.604Z,34.03
2022-12-18T21:31:37.016Z,29.73
2022-12-18T21:34:14.140Z,29.00
2022-12-18T21:36:46.661Z,28.87
2022-12-18T21:39:19.064Z,31.10
2022-12-18T21:42:12.261Z,30.00
2022-12-18T21:44:45.036Z,29.43
2022-12-18T21:47:22.933Z,28.70
2022-12-18T21:49:55.061Z,30.73
2022-12-18T21:52:31.960Z,29.53
2022-12-18T21:55:09.401Z,31.17
2022-12-18T21:57:41.626Z,30.20
2022-12-18T22:00:18.222Z,28.20
2022-12-18T22:03:17.848Z,32.60
2022-12-18T22:05:42.836Z,33.03
2022-12-18T22:08:14.545Z,32.80
2022-12-18T22:10:46.545Z,32.43
2022-12-18T22:13:18.371Z,30.47
2022-12-18T22:15:50.137Z,34.83
2022-12-18T22:18:22.801Z,34.00
2022-12-18T22:21:05.978Z,31.70
2022-12-18T22:23:37.660Z,27.90
2022-12-18T22:26:10.717Z,29.90
2022-12-18T22:29:00.864Z,30.60
2022-12-18T22:31:32.734Z,32.53
2022-12-18T22:34:05.069Z,33.03
2022-12-18T22:36:39.632Z,34.50
2022-12-18T22:39:17.808Z,30.77
2022-12-18T22:41:49.950Z,28.87
2022-12-18T22:44:22.298Z,31.63
2022-12-18T22:47:05.686Z,30.67
2022-12-18T22:49:38.877Z,28.27
2022-12-18T22:52:10.742Z,32.57
2022-12-18T22:54:42.401Z,30.80
2022-12-18T22:57:14.151Z,28.27
2022-12-18T22:59:46.520Z,28.17
2022-12-18T23:02:18.998Z,30.70
2022-12-18T23:04:51.199Z,29.73
2022-12-18T23:07:22.860Z,29.40
2022-12-18T23:10:00.654Z,28.93
2022-12-18T23:12:33.034Z,29.90
2022-12-18T23:15:07.712Z,29.80
2022-12-18T23:17:39.385Z,28.60
2022-12-18T23:20:11.421Z,31.20
2022-12-18T23:22:43.114Z,32.57
2022-12-18T23:25:14.981Z,31.13
2022-12-18T23:27:46.673Z,29.87
2022-12-18T23:30:18.512Z,30.37
2022-12-18T23:32:50.206Z,28.70
2022-12-18T23:35:21.914Z,31.80
2022-12-18T23:38:01.032Z,28.93
2022-12-18T23:40:32.913Z,28.07
2022-12-18T23:43:04.557Z,28.30
2022-12-18T23:45:39.375Z,29.40
2022-12-18T23:48:11.393Z,27.20
2022-12-18T23:50:43.148Z,26.30
2022-12-18T23:53:14.967Z,27.47
2022-12-18T23:55:46.683Z,31.20
2022-12-18T23:58:21.124Z,30.77
